createdAt,value
2024-01-18T00:00:53.772Z,96.48
2024-01-18T00:03:21.827Z,96.33
2024-01-18T00:05:51.700Z,96.49
2024-01-18T00:08:19.944Z,96.60
2024-01-18T00:10:48.038Z,96.66
2024-01-18T00:13:16.241Z,96.68
2024-01-18T00:15:44.400Z,96.71
2024-01-18T00:18:12.676Z,96.56
2024-01-18T00:20:40.816Z,96.74
2024-01-18T00:23:10.052Z,96.76
2024-01-18T00:25:38.092Z,96.61
2024-01-18T00:28:06.519Z,96.67
2024-01-18T00:30:34.581Z,96.68
2024-01-18T00:33:02.981Z,96.61
2024-01-18T00:35:30.916Z,96.58
2024-01-18T00:37:58.919Z,96.59
2024-01-18T00:40:28.398Z,96.57
2024-01-18T00:42:56.385Z,97.54
2024-01-18T00:45:24.301Z,97.85
2024-01-18T00:47:52.242Z,97.61
2024-01-18T00:50:20.153Z,97.17
2024-01-18T00:52:48.271Z,97.04
2024-01-18T00:55:16.394Z,96.69
2024-01-18T00:57:45.828Z,96.52
2024-01-18T01:00:16.121Z,96.64
2024-01-18T01:02:44.144Z,96.70
2024-01-18T01:05:12.055Z,96.66
2024-01-18T01:07:39.977Z,96.59
2024-01-18T01:10:08.594Z,96.38
2024-01-18T01:12:36.513Z,96.24
2024-01-18T01:15:08.777Z,96.24
2024-01-18T01:17:37.025Z,96.49
2024-01-18T01:20:06.246Z,96.35
2024-01-18T01:22:34.779Z,96.62
2024-01-18T01:25:02.652Z,96.77
2024-01-18T01:27:30.774Z,96.66
2024-01-18T01:29:59.039Z,96.71
2024-01-18T01:32:28.326Z,96.76
2024-01-18T01:34:56.516Z,96.43
2024-01-18T01:37:24.413Z,96.49
2024-01-18T01:39:52.622Z,96.63
2024-01-18T01:42:20.680Z,96.53
2024-01-18T01:44:48.670Z,96.49
2024-01-18T01:47:16.655Z,96.36
2024-01-18T01:49:46.073Z,96.33
2024-01-18T01:52:14.720Z,96.28
2024-01-18T01:54:43.694Z,96.08
2024-01-18T01:57:11.818Z,97.82
2024-01-18T01:59:45.068Z,97.37
2024-01-18T02:02:14.108Z,96.73
2024-01-18T02:04:43.184Z,96.75
2024-01-18T02:07:14.408Z,96.81
2024-01-18T02:09:43.020Z,96.73
2024-01-18T02:12:13.392Z,96.60
2024-01-18T02:14:41.733Z,96.54
2024-01-18T02:17:09.769Z,96.59
2024-01-18T02:19:37.655Z,96.52
2024-01-18T02:22:09.262Z,96.47
2024-01-18T02:24:43.867Z,96.63
2024-01-18T02:27:13.543Z,96.72
2024-01-18T02:29:41.584Z,96.76
2024-01-18T02:32:09.421Z,96.73
2024-01-18T02:34:40.496Z,96.66
2024-01-18T02:37:08.583Z,96.75
2024-01-18T02:39:37.285Z,96.64
2024-01-18T02:42:06.076Z,96.43
2024-01-18T02:44:35.431Z,96.37
2024-01-18T02:47:03.394Z,96.34
2024-01-18T02:49:31.422Z,96.19
2024-01-18T02:51:59.474Z,96.21
2024-01-18T02:54:27.647Z,95.84
2024-01-18T02:56:55.537Z,95.43
2024-01-18T02:59:23.654Z,95.88
2024-01-18T03:01:53.027Z,95.72
2024-01-18T03:04:21.642Z,95.92
2024-01-18T03:06:49.650Z,95.97
2024-01-18T03:09:17.708Z,96.10
2024-01-18T03:11:45.541Z,96.28
2024-01-18T03:14:14.175Z,96.46
2024-01-18T03:16:44.304Z,96.53
2024-01-18T03:19:13.951Z,96.50
2024-01-18T03:21:42.484Z,96.23
2024-01-18T03:24:10.484Z,96.31
2024-01-18T03:26:38.548Z,96.16
2024-01-18T03:29:07.209Z,96.14
2024-01-18T03:31:38.294Z,96.15
2024-01-18T03:34:06.277Z,96.29
2024-01-18T03:36:35.713Z,96.03
2024-01-18T03:39:03.708Z,96.05
2024-01-18T03:41:32.001Z,96.18
2024-01-18T03:44:00.027Z,96.17
2024-01-18T03:46:28.032Z,96.17
2024-01-18T03:48:56.163Z,96.26
2024-01-18T03:51:44.327Z,96.69
2024-01-18T03:54:12.556Z,96.88
2024-01-18T03:56:40.690Z,97.07
2024-01-18T03:59:08.732Z,96.83
2024-01-18T04:01:36.623Z,96.40
2024-01-18T04:04:05.045Z,96.20
2024-01-18T04:06:33.187Z,96.29
2024-01-18T04:09:02.864Z,96.55
2024-01-18T04:11:32.064Z,96.51
2024-01-18T04:14:00.116Z,96.53
2024-01-18T04:16:28.311Z,96.21
2024-01-18T04:18:56.550Z,96.25
2024-01-18T04:21:24.641Z,96.45
2024-01-18T04:23:52.907Z,96.51
2024-01-18T04:26:22.427Z,96.70
2024-01-18T04:28:50.428Z,96.90
2024-01-18T04:31:18.293Z,96.82
2024-01-18T04:33:46.462Z,96.90
2024-01-18T04:36:14.594Z,96.80
2024-01-18T04:38:42.878Z,96.76
2024-01-18T04:41:10.901Z,96.59
2024-01-18T04:43:40.076Z,96.29
2024-01-18T04:46:10.655Z,96.33
2024-01-18T04:48:39.214Z,96.43
2024-01-18T04:51:07.377Z,96.56
2024-01-18T04:53:35.541Z,96.60
2024-01-18T04:56:03.538Z,96.45
2024-01-18T04:58:31.673Z,96.37
2024-01-18T05:01:02.429Z,96.28
2024-01-18T05:03:30.737Z,96.49
2024-01-18T05:05:58.815Z,96.56
2024-01-18T05:08:27.275Z,96.54
2024-01-18T05:10:56.116Z,96.64
2024-01-18T05:13:24.071Z,96.45
2024-01-18T05:15:52.572Z,96.50
2024-01-18T05:18:22.442Z,96.47
2024-01-18T05:20:50.340Z,95.95
2024-01-18T05:23:18.331Z,96.18
2024-01-18T05:25:46.535Z,96.09
2024-01-18T05:28:14.507Z,95.83
2024-01-18T05:30:42.529Z,96.11
2024-01-18T05:33:10.518Z,96.27
2024-01-18T05:35:39.945Z,96.65
2024-01-18T05:38:07.882Z,96.78
2024-01-18T05:40:35.736Z,96.77
2024-01-18T05:43:04.060Z,96.64
2024-01-18T05:45:32.078Z,96.61
2024-01-18T05:48:01.045Z,96.30
2024-01-18T05:50:29.050Z,96.27
2024-01-18T05:52:58.676Z,96.29
2024-01-18T05:55:26.639Z,96.39
2024-01-18T05:57:54.482Z,96.63
2024-01-18T06:00:22.996Z,96.60
2024-01-18T06:02:50.893Z,96.67
2024-01-18T06:05:18.862Z,96.82
2024-01-18T06:07:45.937Z,96.44
2024-01-18T06:10:15.186Z,96.52
2024-01-18T06:12:43.326Z,96.65
2024-01-18T06:15:12.211Z,96.66
2024-01-18T06:17:40.395Z,96.79
2024-01-18T06:20:09.361Z,96.84
2024-01-18T06:22:37.376Z,97.10
2024-01-18T06:25:06.056Z,97.17
2024-01-18T06:27:36.613Z,97.42
2024-01-18T06:30:10.696Z,97.27
2024-01-18T06:32:39.591Z,97.16
2024-01-18T06:35:08.142Z,97.36
2024-01-18T06:37:36.004Z,97.34
2024-01-18T06:40:04.452Z,97.29
2024-01-18T06:42:33.130Z,97.50
2024-01-18T06:45:03.587Z,97.55
2024-01-18T06:47:31.674Z,97.69
2024-01-18T06:49:59.761Z,97.86
2024-01-18T06:52:27.665Z,97.83
2024-01-18T06:54:55.578Z,97.90
2024-01-18T06:57:23.738Z,99.99
2024-01-18T06:59:55.962Z,99.99
2024-01-18T07:02:25.418Z,99.99
2024-01-18T07:04:53.550Z,99.99
2024-01-18T07:07:21.535Z,99.99
2024-01-18T07:09:49.649Z,99.99
2024-01-18T07:12:17.613Z,98.73
2024-01-18T07:14:45.589Z,96.73
2024-01-18T07:17:13.695Z,95.29
2024-01-18T07:19:43.095Z,93.48
2024-01-18T07:22:11.335Z,94.06
2024-01-18T07:24:39.285Z,95.02
2024-01-18T07:27:10.880Z,93.77
2024-01-18T07:29:39.065Z,92.70
2024-01-18T07:32:07.678Z,92.31
2024-01-18T07:34:36.331Z,91.84
2024-01-18T07:37:08.664Z,91.21
2024-01-18T07:39:37.961Z,90.08
2024-01-18T07:42:06.753Z,88.35
2024-01-18T07:44:34.800Z,87.74
2024-01-18T07:47:03.003Z,89.33
2024-01-18T07:49:30.937Z,89.24
2024-01-18T07:51:59.146Z,92.17
2024-01-18T07:54:29.000Z,88.55
2024-01-18T07:56:57.359Z,92.80
2024-01-18T07:59:25.434Z,90.99
2024-01-18T08:01:53.314Z,91.71
2024-01-18T08:04:21.492Z,89.56
2024-01-18T08:06:49.599Z,89.50
2024-01-18T08:09:17.828Z,89.11
2024-01-18T08:11:47.948Z,89.71
2024-01-18T08:14:18.262Z,90.64
2024-01-18T08:16:46.389Z,89.28
2024-01-18T08:19:14.671Z,87.89
2024-01-18T08:21:46.095Z,87.44
2024-01-18T08:24:14.353Z,86.90
2024-01-18T08:26:42.714Z,87.26
2024-01-18T08:29:12.024Z,86.88
2024-01-18T08:31:40.930Z,86.93
2024-01-18T08:34:09.970Z,85.34
2024-01-18T08:36:38.660Z,84.38
2024-01-18T08:39:09.118Z,84.27
2024-01-18T08:41:37.229Z,80.49
2024-01-18T08:44:06.375Z,80.28
2024-01-18T08:46:35.778Z,78.54
2024-01-18T08:49:03.739Z,77.61
2024-01-18T08:51:31.898Z,76.00
2024-01-18T08:53:59.981Z,76.50
2024-01-18T08:56:31.174Z,74.45
2024-01-18T08:59:00.378Z,75.35
2024-01-18T09:01:28.295Z,76.85
2024-01-18T09:03:57.775Z,75.96
2024-01-18T09:06:26.428Z,75.84
2024-01-18T09:08:54.429Z,74.59
2024-01-18T09:11:22.914Z,74.09
2024-01-18T09:13:51.649Z,72.02
2024-01-18T09:16:19.692Z,72.39
2024-01-18T09:19:00.508Z,71.44
2024-01-18T09:21:35.748Z,71.21
2024-01-18T09:24:04.111Z,71.18
2024-01-18T09:26:32.250Z,66.08
2024-01-18T09:29:00.154Z,69.26
2024-01-18T09:31:37.903Z,71.26
2024-01-18T09:34:09.945Z,74.12
2024-01-18T09:36:39.853Z,76.75
2024-01-18T09:39:10.155Z,77.90
2024-01-18T09:41:38.319Z,78.79
2024-01-18T09:44:06.682Z,79.74
2024-01-18T09:46:34.587Z,81.15
2024-01-18T09:49:04.716Z,81.99
2024-01-18T09:51:33.688Z,83.41
2024-01-18T09:54:03.217Z,84.37
2024-01-18T09:56:32.231Z,84.91
2024-01-18T09:59:00.500Z,85.05
2024-01-18T10:01:28.874Z,85.95
2024-01-18T10:03:56.987Z,86.17
2024-01-18T10:06:25.423Z,86.85
2024-01-18T10:08:54.421Z,87.44
2024-01-18T10:11:23.905Z,87.28
2024-01-18T10:13:56.834Z,87.73
2024-01-18T10:16:27.656Z,88.66
2024-01-18T10:18:56.318Z,88.83
2024-01-18T10:21:24.806Z,87.99
2024-01-18T10:23:53.796Z,87.58
2024-01-18T10:26:23.788Z,86.80
2024-01-18T10:28:51.717Z,87.87
2024-01-18T10:31:19.856Z,87.30
2024-01-18T10:33:48.812Z,87.19
2024-01-18T10:36:17.122Z,86.06
2024-01-18T10:38:45.115Z,84.86
2024-01-18T10:41:13.191Z,85.53
2024-01-18T10:43:42.616Z,86.71
2024-01-18T10:46:11.858Z,86.60
2024-01-18T10:48:39.824Z,86.47
2024-01-18T10:51:08.853Z,86.75
2024-01-18T10:53:38.322Z,86.73
2024-01-18T10:56:07.104Z,85.64
2024-01-18T10:58:35.268Z,86.45
2024-01-18T11:01:05.781Z,87.32
2024-01-18T11:03:35.265Z,87.30
2024-01-18T11:06:09.393Z,86.89
2024-01-18T11:08:38.553Z,87.67
2024-01-18T11:11:07.855Z,86.63
2024-01-18T11:13:36.793Z,86.24
2024-01-18T11:16:07.074Z,86.74
2024-01-18T11:18:36.277Z,86.48
2024-01-18T11:21:08.033Z,86.59
2024-01-18T11:23:37.979Z,86.99
2024-01-18T11:26:07.195Z,86.12
2024-01-18T11:28:35.189Z,85.82
2024-01-18T11:31:03.790Z,84.70
2024-01-18T11:33:34.071Z,84.44
2024-01-18T11:36:03.829Z,84.96
2024-01-18T11:38:33.788Z,84.37
2024-01-18T11:41:10.631Z,84.75
2024-01-18T11:43:54.324Z,86.51
2024-01-18T11:46:35.148Z,87.09
2024-01-18T11:49:04.972Z,87.22
2024-01-18T11:51:33.148Z,86.72
2024-01-18T11:54:02.094Z,86.63
2024-01-18T11:56:31.046Z,86.40
2024-01-18T11:59:02.367Z,86.45
2024-01-18T12:01:33.087Z,86.60
2024-01-18T12:04:01.349Z,86.22
2024-01-18T12:06:32.542Z,84.82
2024-01-18T12:09:01.274Z,85.61
2024-01-18T12:11:30.572Z,85.79
2024-01-18T12:13:58.567Z,86.61
2024-01-18T12:16:26.515Z,86.79
2024-01-18T12:18:55.824Z,87.02
2024-01-18T12:21:24.564Z,87.17
2024-01-18T12:23:55.759Z,86.93
2024-01-18T12:29:09.464Z,88.48
2024-01-18T12:31:37.557Z,88.64
2024-01-18T12:34:06.210Z,89.16
2024-01-18T12:36:34.429Z,89.28
2024-01-18T12:39:04.148Z,89.14
2024-01-18T12:41:33.104Z,89.71
2024-01-18T12:44:06.457Z,90.36
2024-01-18T12:46:36.648Z,90.84
2024-01-18T12:49:05.119Z,91.22
2024-01-18T12:51:34.195Z,90.42
2024-01-18T12:54:03.796Z,90.17
2024-01-18T12:56:32.422Z,88.75
2024-01-18T12:59:00.553Z,86.47
2024-01-18T13:01:29.733Z,84.49
2024-01-18T13:04:13.933Z,82.04
2024-01-18T13:06:50.688Z,81.76
2024-01-18T13:09:27.479Z,82.42
2024-01-18T13:11:56.400Z,83.05
2024-01-18T13:14:24.636Z,83.42
2024-01-18T13:16:53.318Z,84.80
2024-01-18T13:19:22.497Z,86.11
2024-01-18T13:21:53.300Z,87.87
2024-01-18T13:24:23.960Z,89.13
2024-01-18T13:26:53.703Z,89.58
2024-01-18T13:29:21.597Z,90.71
2024-01-18T13:31:49.807Z,90.71
2024-01-18T13:34:18.657Z,90.43
2024-01-18T13:36:47.707Z,90.04
2024-01-18T13:39:16.067Z,90.32
2024-01-18T13:41:45.716Z,90.53
2024-01-18T13:44:13.797Z,91.16
2024-01-18T13:46:42.189Z,91.04
2024-01-18T13:49:11.026Z,91.24
2024-01-18T13:51:39.478Z,91.43
2024-01-18T13:54:07.503Z,91.61
2024-01-18T13:56:35.784Z,91.49
2024-01-18T13:59:05.022Z,91.80
2024-01-18T14:01:33.344Z,91.05
2024-01-18T14:04:01.274Z,90.93
2024-01-18T14:06:29.627Z,90.43
2024-01-18T14:08:58.701Z,89.83
2024-01-18T14:11:26.884Z,90.15
2024-01-18T14:13:54.989Z,90.07
2024-01-18T14:16:24.306Z,90.44
2024-01-18T14:18:52.986Z,91.14
2024-01-18T14:21:20.954Z,91.30
2024-01-18T14:23:48.936Z,91.83
2024-01-18T14:26:18.204Z,92.14
2024-01-18T14:28:46.450Z,92.32
2024-01-18T14:31:14.638Z,92.51
2024-01-18T14:33:44.197Z,92.97
2024-01-18T14:36:12.416Z,93.26
2024-01-18T14:38:40.348Z,93.35
2024-01-18T14:41:08.385Z,93.53
2024-01-18T14:43:36.257Z,93.40
2024-01-18T14:46:04.288Z,93.29
2024-01-18T14:48:32.347Z,93.26
2024-01-18T14:51:01.674Z,93.24
2024-01-18T14:53:29.818Z,93.20
2024-01-18T14:55:57.939Z,93.13
2024-01-18T14:58:25.823Z,93.44
2024-01-18T15:00:53.978Z,93.66
2024-01-18T15:03:21.974Z,93.61
2024-01-18T15:05:50.060Z,93.42
2024-01-18T15:08:19.330Z,93.15
2024-01-18T15:10:47.325Z,92.92
2024-01-18T15:13:15.723Z,92.84
2024-01-18T15:15:44.104Z,92.92
2024-01-18T15:18:12.402Z,92.81
2024-01-18T15:20:40.549Z,92.81
2024-01-18T15:23:08.720Z,93.19
2024-01-18T15:25:37.970Z,93.25
2024-01-18T15:28:06.621Z,93.45
2024-01-18T15:30:34.568Z,93.48
2024-01-18T15:33:02.620Z,93.73
2024-01-18T15:35:30.745Z,93.63
2024-01-18T15:37:58.800Z,93.76
2024-01-18T15:40:26.865Z,93.60
2024-01-18T15:42:56.515Z,93.40
2024-01-18T15:45:24.470Z,93.47
2024-01-18T15:47:53.145Z,93.41
2024-01-18T15:50:21.062Z,93.66
2024-01-18T15:52:49.223Z,93.75
2024-01-18T15:55:17.262Z,93.69
2024-01-18T15:57:45.277Z,93.92
2024-01-18T16:00:15.959Z,94.10
2024-01-18T16:02:43.918Z,94.01
2024-01-18T16:05:12.160Z,94.16
2024-01-18T16:07:40.141Z,94.29
2024-01-18T16:10:09.333Z,94.08
2024-01-18T16:12:37.453Z,94.40
2024-01-18T16:15:06.144Z,94.26
2024-01-18T16:17:35.665Z,94.46
2024-01-18T16:20:03.663Z,94.65
2024-01-18T16:22:31.758Z,94.56
2024-01-18T16:24:59.827Z,94.57
2024-01-18T16:27:27.788Z,94.67
2024-01-18T16:30:03.040Z,94.76
2024-01-18T16:32:36.240Z,94.63
2024-01-18T16:35:05.199Z,94.60
2024-01-18T16:37:33.200Z,94.53
2024-01-18T16:40:01.277Z,94.52
2024-01-18T16:42:29.626Z,94.45
2024-01-18T16:44:57.666Z,94.23
2024-01-18T16:47:25.666Z,94.18
2024-01-18T16:49:54.950Z,94.07
2024-01-18T16:52:24.152Z,94.00
2024-01-18T16:54:53.222Z,94.03
2024-01-18T16:57:29.429Z,94.21
2024-01-18T17:00:00.811Z,94.08
2024-01-18T17:02:28.910Z,94.15
2024-01-18T17:04:58.364Z,94.20
2024-01-18T17:07:27.026Z,94.20
2024-01-18T17:09:55.016Z,94.10
2024-01-18T17:12:23.198Z,94.37
2024-01-18T17:14:51.139Z,94.53
2024-01-18T17:17:19.016Z,94.69
2024-01-18T17:19:48.671Z,94.77
2024-01-18T17:22:17.990Z,94.69
2024-01-18T17:24:46.347Z,94.66
2024-01-18T17:27:14.526Z,94.55
2024-01-18T17:29:47.055Z,94.60
2024-01-18T17:32:15.399Z,94.67
2024-01-18T17:34:43.441Z,94.73
2024-01-18T17:37:11.967Z,94.66
2024-01-18T17:39:41.236Z,94.72
2024-01-18T17:42:09.389Z,94.72
2024-01-18T17:44:37.631Z,94.85
2024-01-18T17:47:07.812Z,94.90
2024-01-18T17:49:36.341Z,95.18
2024-01-18T17:52:05.121Z,95.32
2024-01-18T17:54:33.103Z,95.62
2024-01-18T17:57:02.839Z,95.69
2024-01-18T17:59:30.822Z,95.89
2024-01-18T18:01:59.477Z,95.79
2024-01-18T18:04:27.600Z,96.08
2024-01-18T18:06:55.679Z,95.97
2024-01-18T18:09:23.732Z,95.99
2024-01-18T18:11:51.858Z,95.99
2024-01-18T18:14:21.200Z,96.46
2024-01-18T18:16:49.373Z,96.53
2024-01-18T18:19:17.445Z,96.84
2024-01-18T18:21:45.337Z,96.87
2024-01-18T18:24:13.559Z,96.80
2024-01-18T18:26:43.141Z,96.79
2024-01-18T18:29:11.350Z,96.64
2024-01-18T18:31:40.848Z,96.75
2024-01-18T18:34:16.500Z,96.81
2024-01-18T18:36:51.732Z,96.69
2024-01-18T18:39:19.851Z,96.29
2024-01-18T18:41:48.012Z,96.47
2024-01-18T18:44:16.059Z,96.32
2024-01-18T18:46:45.350Z,96.42
2024-01-18T18:49:13.380Z,96.55
2024-01-18T18:51:41.283Z,96.42
2024-01-18T18:54:09.142Z,96.39
2024-01-18T18:56:37.379Z,96.58
2024-01-18T18:59:07.180Z,96.60
2024-01-18T19:04:23.171Z,96.72
2024-01-18T19:06:51.130Z,96.46
2024-01-18T19:09:19.146Z,96.25
2024-01-18T19:11:47.079Z,96.71
2024-01-18T19:14:15.247Z,96.80
2024-01-18T19:16:43.156Z,97.01
2024-01-18T19:19:11.338Z,96.95
2024-01-18T19:21:40.812Z,96.93
2024-01-18T19:24:08.803Z,96.79
2024-01-18T19:26:36.848Z,96.81
2024-01-18T19:29:05.068Z,96.90
2024-01-18T19:31:32.915Z,97.08
2024-01-18T19:34:01.076Z,97.36
2024-01-18T19:36:28.955Z,97.31
2024-01-18T19:38:58.504Z,97.52
2024-01-18T19:41:28.850Z,97.40
2024-01-18T19:43:57.107Z,97.40
2024-01-18T19:46:25.019Z,97.46
2024-01-18T19:48:52.938Z,97.81
2024-01-18T19:51:20.928Z,97.91
2024-01-18T19:53:49.036Z,98.33
2024-01-18T19:56:18.359Z,98.43
2024-01-18T19:58:46.481Z,98.71
2024-01-18T20:01:14.393Z,98.89
2024-01-18T20:03:42.640Z,98.91
2024-01-18T20:06:11.383Z,98.81
2024-01-18T20:08:39.404Z,98.83
2024-01-18T20:13:54.912Z,98.54
2024-01-18T20:16:23.092Z,98.54
2024-01-18T20:18:52.441Z,98.53
2024-01-18T20:21:20.843Z,98.71
2024-01-18T20:23:48.988Z,98.65
2024-01-18T20:26:17.003Z,98.55
2024-01-18T20:28:49.319Z,98.68
2024-01-18T20:31:18.579Z,98.68
2024-01-18T20:33:47.110Z,98.53
2024-01-18T20:36:15.170Z,98.57
2024-01-18T20:38:43.450Z,98.74
2024-01-18T20:41:13.223Z,98.62
2024-01-18T20:43:41.278Z,98.67
2024-01-18T20:46:09.293Z,98.82
2024-01-18T20:48:38.610Z,98.73
2024-01-18T20:51:06.902Z,98.78
2024-01-18T20:53:35.534Z,98.84
2024-01-18T20:56:04.542Z,98.85
2024-01-18T20:58:32.412Z,98.86
2024-01-18T21:01:03.709Z,98.74
2024-01-18T21:03:31.708Z,98.85
2024-01-18T21:06:01.336Z,99.00
2024-01-18T21:08:29.426Z,98.93
2024-01-18T21:10:57.413Z,98.80
2024-01-18T21:13:25.431Z,98.82
2024-01-18T21:15:53.367Z,98.74
2024-01-18T21:18:21.621Z,98.74
2024-01-18T21:20:49.746Z,98.50
2024-01-18T21:23:19.344Z,98.80
2024-01-18T21:25:47.286Z,98.44
2024-01-18T21:28:15.418Z,98.24
2024-01-18T21:30:43.406Z,98.45
2024-01-18T21:33:12.741Z,98.19
2024-01-18T21:35:40.804Z,98.23
2024-01-18T21:38:09.080Z,98.03
2024-01-18T21:40:38.355Z,98.28
2024-01-18T21:43:06.575Z,98.37
2024-01-18T21:45:34.849Z,98.61
2024-01-18T21:48:03.205Z,98.84
2024-01-18T21:50:31.389Z,99.03
2024-01-18T21:52:59.475Z,99.14
2024-01-18T21:55:28.285Z,99.41
2024-01-18T21:57:57.584Z,99.32
2024-01-18T22:00:25.711Z,99.19
2024-01-18T22:02:54.392Z,98.99
2024-01-18T22:05:24.514Z,98.45
2024-01-18T22:07:52.465Z,98.31
2024-01-18T22:10:20.369Z,98.45
2024-01-18T22:12:48.382Z,98.79
2024-01-18T22:15:18.930Z,99.06
2024-01-18T22:17:47.093Z,99.30
2024-01-18T22:20:15.096Z,98.98
2024-01-18T22:22:43.340Z,98.99
2024-01-18T22:25:11.492Z,98.83
2024-01-18T22:27:39.490Z,98.80
2024-01-18T22:30:10.355Z,98.88
2024-01-18T22:32:39.828Z,99.06
2024-01-18T22:35:08.747Z,99.25
2024-01-18T22:37:36.555Z,99.24
2024-01-18T22:40:06.032Z,99.12
2024-01-18T22:42:35.288Z,98.93
2024-01-18T22:45:03.300Z,99.00
2024-01-18T22:47:31.397Z,98.98
2024-01-18T22:50:00.964Z,99.07
2024-01-18T22:52:29.036Z,99.17
2024-01-18T22:54:57.471Z,99.29
2024-01-18T22:57:25.514Z,99.33
2024-01-18T22:59:53.414Z,99.13
2024-01-18T23:02:21.743Z,98.89
2024-01-18T23:04:49.619Z,98.98
2024-01-18T23:07:19.046Z,99.23
2024-01-18T23:09:48.124Z,99.29
2024-01-18T23:12:16.444Z,99.38
2024-01-18T23:14:44.428Z,99.32
2024-01-18T23:17:12.754Z,99.41
2024-01-18T23:19:40.634Z,99.29
2024-01-18T23:22:08.776Z,99.25
2024-01-18T23:24:38.034Z,99.27
2024-01-18T23:27:08.298Z,99.25
2024-01-18T23:29:37.709Z,99.17
2024-01-18T23:32:06.750Z,99.41
2024-01-18T23:34:34.921Z,99.49
2024-01-18T23:37:03.123Z,99.41
2024-01-18T23:39:31.008Z,99.22
2024-01-18T23:42:00.491Z,99.31
2024-01-18T23:44:28.418Z,99.36
2024-01-18T23:46:56.586Z,99.31
2024-01-18T23:49:24.489Z,99.39
2024-01-18T23:51:52.736Z,99.27
2024-01-18T23:54:20.668Z,99.16
2024-01-18T23:56:48.588Z,99.26
2024-01-18T23:59:18.076Z,99.26
